createdAt,value
2019-03-25T19:45:01.101Z,7.07
2019-03-25T19:50:01.564Z,7.14
2019-03-25T19:55:01.114Z,7.05
2019-03-25T20:00:01.108Z,6.95
2019-03-25T20:05:01.267Z,6.90
2019-03-25T20:10:01.170Z,6.76
2019-03-25T20:15:01.073Z,6.79
2019-03-25T20:20:01.395Z,6.88
2019-03-25T20:25:01.103Z,6.65
2019-03-25T20:30:01.077Z,6.56
2019-03-25T20:35:01.136Z,6.51
2019-03-25T20:40:01.118Z,6.72
2019-03-25T20:45:01.387Z,6.77
2019-03-25T20:50:01.126Z,6.76
2019-03-25T20:55:01.516Z,6.63
2019-03-25T21:00:01.394Z,6.54
2019-03-25T21:05:01.074Z,6.43
2019-03-25T21:10:01.476Z,6.36
2019-03-25T21:15:01.054Z,6.28
2019-03-25T21:20:01.085Z,6.22
2019-03-25T21:25:01.073Z,6.17
2019-03-25T21:30:01.155Z,6.19
2019-03-25T21:35:01.459Z,6.05
2019-03-25T21:40:01.235Z,6.00
2019-03-25T21:45:01.421Z,5.90
2019-03-25T21:50:01.263Z,5.71
2019-03-25T21:55:01.448Z,5.57
2019-03-25T22:00:01.083Z,5.27
2019-03-25T22:05:01.431Z,4.95
2019-03-25T22:10:01.233Z,4.67
2019-03-25T22:15:01.489Z,4.47
2019-03-25T22:20:01.165Z,4.32
2019-03-25T22:25:01.213Z,4.23
2019-03-25T22:30:01.046Z,4.10
2019-03-25T22:35:01.112Z,4.10
2019-03-25T22:40:01.400Z,3.95
2019-03-25T22:45:01.073Z,3.97
2019-03-25T22:50:01.387Z,3.94
2019-03-25T22:55:01.075Z,4.07
2019-03-25T23:00:01.420Z,4.05
2019-03-25T23:05:01.050Z,3.88
2019-03-25T23:10:01.121Z,3.72
2019-03-25T23:15:01.084Z,3.66
2019-03-25T23:20:01.345Z,3.60
2019-03-25T23:25:01.068Z,3.62
2019-03-25T23:30:01.086Z,3.52
2019-03-25T23:35:01.066Z,3.49
2019-03-25T23:40:01.057Z,3.49
2019-03-25T23:45:01.053Z,3.40
2019-03-25T23:50:01.040Z,3.38
2019-03-25T23:55:01.074Z,3.24
